sensor_id;sensor_type;location;lat;lon;timestamp;P1;durP1;ratioP1;P2;durP2;ratioP2
22230;SDS011;11284;48.086;-1.652;2023-12-04T00:01:24;10.57;;;4.70;;
22230;SDS011;11284;48.086;-1.652;2023-12-04T00:03:51;8.05;;;4.65;;
22230;SDS011;11284;48.086;-1.652;2023-12-04T00:06:18;7.65;;;4.90;;
22230;SDS011;11284;48.086;-1.652;2023-12-04T00:08:44;9.57;;;5.03;;
22230;SDS011;11284;48.086;-1.652;2023-12-04T00:11:10;8.13;;;4.80;;
22230;SDS011;11284;48.086;-1.652;2023-12-04T00:13:36;7.13;;;4.22;;
22230;SDS011;11284;48.086;-1.652;2023-12-04T00:16:02;7.97;;;4.38;;
22230;SDS011;11284;48.086;-1.652;2023-12-04T00:18:28;7.72;;;4.53;;
22230;SDS011;11284;48.086;-1.652;2023-12-04T00:20:54;8.95;;;5.00;;
22230;SDS011;11284;48.086;-1.652;2023-12-04T00:23:20;8.60;;;4.35;;
22230;SDS011;11284;48.086;-1.652;2023-12-04T00:25:46;7.25;;;4.45;;
22230;SDS011;11284;48.086;-1.652;2023-12-04T00:28:12;8.35;;;4.40;;
22230;SDS011;11284;48.086;-1.652;2023-12-04T00:30:38;7.72;;;4.45;;
22230;SDS011;11284;48.086;-1.652;2023-12-04T00:33:04;8.93;;;4.82;;
22230;SDS011;11284;48.086;-1.652;2023-12-04T00:35:30;9.43;;;4.65;;
22230;SDS011;11284;48.086;-1.652;2023-12-04T00:37:56;7.07;;;4.30;;
22230;SDS011;11284;48.086;-1.652;2023-12-04T00:40:22;8.30;;;4.10;;
22230;SDS011;11284;48.086;-1.652;2023-12-04T00:42:48;8.65;;;4.68;;
22230;SDS011;11284;48.086;-1.652;2023-12-04T00:45:14;10.77;;;4.82;;
22230;SDS011;11284;48.086;-1.652;2023-12-04T00:47:40;7.45;;;4.60;;
22230;SDS011;11284;48.086;-1.652;2023-12-04T00:50:06;7.57;;;4.68;;
22230;SDS011;11284;48.086;-1.652;2023-12-04T00:52:32;7.65;;;4.20;;
22230;SDS011;11284;48.086;-1.652;2023-12-04T00:54:58;8.10;;;4.50;;
22230;SDS011;11284;48.086;-1.652;2023-12-04T00:57:24;9.65;;;4.80;;
22230;SDS011;11284;48.086;-1.652;2023-12-04T00:59:50;7.95;;;4.32;;
22230;SDS011;11284;48.086;-1.652;2023-12-04T01:02:16;8.00;;;4.68;;
22230;SDS011;11284;48.086;-1.652;2023-12-04T01:04:42;9.75;;;4.80;;
22230;SDS011;11284;48.086;-1.652;2023-12-04T01:07:08;8.57;;;4.70;;
22230;SDS011;11284;48.086;-1.652;2023-12-04T01:09:35;8.05;;;4.22;;
22230;SDS011;11284;48.086;-1.652;2023-12-04T01:12:01;10.23;;;4.43;;
22230;SDS011;11284;48.086;-1.652;2023-12-04T01:14:27;8.88;;;4.80;;
22230;SDS011;11284;48.086;-1.652;2023-12-04T01:16:53;7.35;;;4.63;;
22230;SDS011;11284;48.086;-1.652;2023-12-04T01:19:19;9.07;;;4.90;;
22230;SDS011;11284;48.086;-1.652;2023-12-04T01:21:45;10.32;;;5.50;;
22230;SDS011;11284;48.086;-1.652;2023-12-04T01:24:11;8.50;;;4.78;;
22230;SDS011;11284;48.086;-1.652;2023-12-04T01:26:37;8.07;;;5.10;;
22230;SDS011;11284;48.086;-1.652;2023-12-04T01:29:03;8.45;;;4.63;;
22230;SDS011;11284;48.086;-1.652;2023-12-04T01:31:29;8.93;;;5.05;;
22230;SDS011;11284;48.086;-1.652;2023-12-04T01:33:55;9.00;;;5.18;;
22230;SDS011;11284;48.086;-1.652;2023-12-04T01:36:21;10.30;;;4.90;;
22230;SDS011;11284;48.086;-1.652;2023-12-04T01:38:47;7.50;;;4.85;;
22230;SDS011;11284;48.086;-1.652;2023-12-04T01:41:13;8.73;;;4.80;;
22230;SDS011;11284;48.086;-1.652;2023-12-04T01:43:39;9.85;;;5.18;;
22230;SDS011;11284;48.086;-1.652;2023-12-04T01:46:05;8.70;;;5.43;;
22230;SDS011;11284;48.086;-1.652;2023-12-04T01:48:32;8.88;;;4.93;;
22230;SDS011;11284;48.086;-1.652;2023-12-04T01:50:58;8.02;;;5.25;;
22230;SDS011;11284;48.086;-1.652;2023-12-04T01:53:26;9.15;;;5.38;;
22230;SDS011;11284;48.086;-1.652;2023-12-04T01:55:52;10.35;;;5.55;;
22230;SDS011;11284;48.086;-1.652;2023-12-04T01:58:18;7.57;;;4.90;;
22230;SDS011;11284;48.086;-1.652;2023-12-04T02:00:45;12.07;;;5.30;;
22230;SDS011;11284;48.086;-1.652;2023-12-04T02:03:11;9.63;;;5.43;;
22230;SDS011;11284;48.086;-1.652;2023-12-04T02:05:36;9.57;;;5.20;;
22230;SDS011;11284;48.086;-1.652;2023-12-04T02:08:03;8.57;;;5.15;;
22230;SDS011;11284;48.086;-1.652;2023-12-04T02:10:29;8.43;;;5.05;;
22230;SDS011;11284;48.086;-1.652;2023-12-04T02:12:55;8.00;;;5.15;;
22230;SDS011;11284;48.086;-1.652;2023-12-04T02:15:22;8.15;;;5.00;;
22230;SDS011;11284;48.086;-1.652;2023-12-04T02:17:48;8.90;;;4.70;;
22230;SDS011;11284;48.086;-1.652;2023-12-04T02:20:14;7.65;;;4.75;;
22230;SDS011;11284;48.086;-1.652;2023-12-04T02:22:40;7.78;;;4.03;;
22230;SDS011;11284;48.086;-1.652;2023-12-04T02:25:07;8.23;;;4.20;;
22230;SDS011;11284;48.086;-1.652;2023-12-04T02:27:37;8.80;;;4.40;;
22230;SDS011;11284;48.086;-1.652;2023-12-04T02:30:05;9.68;;;4.93;;
22230;SDS011;11284;48.086;-1.652;2023-12-04T02:32:33;7.32;;;4.40;;
22230;SDS011;11284;48.086;-1.652;2023-12-04T02:35:01;7.53;;;4.22;;
22230;SDS011;11284;48.086;-1.652;2023-12-04T02:37:28;7.13;;;4.20;;
22230;SDS011;11284;48.086;-1.652;2023-12-04T02:39:54;6.53;;;4.30;;
22230;SDS011;11284;48.086;-1.652;2023-12-04T02:42:21;6.93;;;4.30;;
22230;SDS011;11284;48.086;-1.652;2023-12-04T02:44:49;8.10;;;4.30;;
22230;SDS011;11284;48.086;-1.652;2023-12-04T02:47:15;7.20;;;4.28;;
22230;SDS011;11284;48.086;-1.652;2023-12-04T02:49:42;6.05;;;3.75;;
22230;SDS011;11284;48.086;-1.652;2023-12-04T02:52:08;7.03;;;4.07;;
22230;SDS011;11284;48.086;-1.652;2023-12-04T02:54:34;6.90;;;4.13;;
22230;SDS011;11284;48.086;-1.652;2023-12-04T02:57:00;9.40;;;4.03;;
22230;SDS011;11284;48.086;-1.652;2023-12-04T02:59:26;7.20;;;3.58;;
22230;SDS011;11284;48.086;-1.652;2023-12-04T03:01:51;6.15;;;3.53;;
22230;SDS011;11284;48.086;-1.652;2023-12-04T03:04:19;7.03;;;3.78;;
22230;SDS011;11284;48.086;-1.652;2023-12-04T03:06:44;7.15;;;3.85;;
22230;SDS011;11284;48.086;-1.652;2023-12-04T03:09:10;5.78;;;3.55;;
22230;SDS011;11284;48.086;-1.652;2023-12-04T03:11:40;7.63;;;4.30;;
22230;SDS011;11284;48.086;-1.652;2023-12-04T03:14:06;6.43;;;3.70;;
22230;SDS011;11284;48.086;-1.652;2023-12-04T03:16:32;5.70;;;3.33;;
22230;SDS011;11284;48.086;-1.652;2023-12-04T03:18:58;7.57;;;3.08;;
22230;SDS011;11284;48.086;-1.652;2023-12-04T03:21:24;4.85;;;2.97;;
22230;SDS011;11284;48.086;-1.652;2023-12-04T03:23:50;6.15;;;3.45;;
22230;SDS011;11284;48.086;-1.652;2023-12-04T03:26:16;5.55;;;3.28;;
22230;SDS011;11284;48.086;-1.652;2023-12-04T03:28:42;5.13;;;3.22;;
22230;SDS011;11284;48.086;-1.652;2023-12-04T03:31:09;5.90;;;3.30;;
22230;SDS011;11284;48.086;-1.652;2023-12-04T03:33:35;6.00;;;3.30;;
22230;SDS011;11284;48.086;-1.652;2023-12-04T03:36:01;6.25;;;3.80;;
22230;SDS011;11284;48.086;-1.652;2023-12-04T03:38:27;6.75;;;3.65;;
22230;SDS011;11284;48.086;-1.652;2023-12-04T03:40:53;6.25;;;3.85;;
22230;SDS011;11284;48.086;-1.652;2023-12-04T03:43:19;6.28;;;4.00;;
22230;SDS011;11284;48.086;-1.652;2023-12-04T03:45:45;6.88;;;3.72;;
22230;SDS011;11284;48.086;-1.652;2023-12-04T03:48:11;7.63;;;3.90;;
22230;SDS011;11284;48.086;-1.652;2023-12-04T03:50:37;6.38;;;3.83;;
22230;SDS011;11284;48.086;-1.652;2023-12-04T03:53:03;6.22;;;3.70;;
22230;SDS011;11284;48.086;-1.652;2023-12-04T03:55:29;6.72;;;3.70;;
22230;SDS011;11284;48.086;-1.652;2023-12-04T03:57:56;7.93;;;4.00;;
22230;SDS011;11284;48.086;-1.652;2023-12-04T04:00:22;7.13;;;3.80;;
22230;SDS011;11284;48.086;-1.652;2023-12-04T04:02:48;8.50;;;3.88;;
22230;SDS011;11284;48.086;-1.652;2023-12-04T04:05:15;7.10;;;3.60;;
22230;SDS011;11284;48.086;-1.652;2023-12-04T04:07:41;10.20;;;4.00;;
22230;SDS011;11284;48.086;-1.652;2023-12-04T04:10:07;7.15;;;3.97;;
22230;SDS011;11284;48.086;-1.652;2023-12-04T04:12:34;6.80;;;3.97;;
22230;SDS011;11284;48.086;-1.652;2023-12-04T04:15:00;6.93;;;3.78;;
22230;SDS011;11284;48.086;-1.652;2023-12-04T04:17:26;7.60;;;3.95;;
22230;SDS011;11284;48.086;-1.652;2023-12-04T04:19:53;9.07;;;4.10;;
22230;SDS011;11284;48.086;-1.652;2023-12-04T04:22:19;7.93;;;3.95;;
22230;SDS011;11284;48.086;-1.652;2023-12-04T04:24:46;9.43;;;4.22;;
22230;SDS011;11284;48.086;-1.652;2023-12-04T04:27:12;7.25;;;4.10;;
22230;SDS011;11284;48.086;-1.652;2023-12-04T04:29:38;10.32;;;4.40;;
22230;SDS011;11284;48.086;-1.652;2023-12-04T04:32:04;6.30;;;4.07;;
22230;SDS011;11284;48.086;-1.652;2023-12-04T04:34:30;7.00;;;3.90;;
22230;SDS011;11284;48.086;-1.652;2023-12-04T04:36:56;8.65;;;3.80;;
22230;SDS011;11284;48.086;-1.652;2023-12-04T04:39:22;10.45;;;3.33;;
22230;SDS011;11284;48.086;-1.652;2023-12-04T04:41:48;8.77;;;4.03;;
22230;SDS011;11284;48.086;-1.652;2023-12-04T04:44:14;6.20;;;3.50;;
22230;SDS011;11284;48.086;-1.652;2023-12-04T04:46:40;7.40;;;3.47;;
22230;SDS011;11284;48.086;-1.652;2023-12-04T04:49:06;9.70;;;3.30;;
22230;SDS011;11284;48.086;-1.652;2023-12-04T04:51:32;7.68;;;3.20;;
22230;SDS011;11284;48.086;-1.652;2023-12-04T04:53:59;9.50;;;3.78;;
22230;SDS011;11284;48.086;-1.652;2023-12-04T04:56:25;6.90;;;3.22;;
22230;SDS011;11284;48.086;-1.652;2023-12-04T04:58:51;9.30;;;3.35;;
22230;SDS011;11284;48.086;-1.652;2023-12-04T05:01:17;9.93;;;3.70;;
22230;SDS011;11284;48.086;-1.652;2023-12-04T05:03:43;8.70;;;3.58;;
22230;SDS011;11284;48.086;-1.652;2023-12-04T05:06:09;8.93;;;3.10;;
22230;SDS011;11284;48.086;-1.652;2023-12-04T05:08:35;7.05;;;2.92;;
22230;SDS011;11284;48.086;-1.652;2023-12-04T05:11:01;6.82;;;3.22;;
22230;SDS011;11284;48.086;-1.652;2023-12-04T05:13:27;9.98;;;3.20;;
22230;SDS011;11284;48.086;-1.652;2023-12-04T05:15:53;6.45;;;3.08;;
22230;SDS011;11284;48.086;-1.652;2023-12-04T05:18:19;6.28;;;3.05;;
22230;SDS011;11284;48.086;-1.652;2023-12-04T05:20:45;7.68;;;3.45;;
22230;SDS011;11284;48.086;-1.652;2023-12-04T05:23:11;6.85;;;2.80;;
22230;SDS011;11284;48.086;-1.652;2023-12-04T05:25:37;6.72;;;2.78;;
22230;SDS011;11284;48.086;-1.652;2023-12-04T05:28:03;8.55;;;3.13;;
22230;SDS011;11284;48.086;-1.652;2023-12-04T05:30:29;5.70;;;3.10;;
22230;SDS011;11284;48.086;-1.652;2023-12-04T05:32:55;5.35;;;2.90;;
22230;SDS011;11284;48.086;-1.652;2023-12-04T05:35:21;7.70;;;2.80;;
22230;SDS011;11284;48.086;-1.652;2023-12-04T05:37:48;5.43;;;2.50;;
22230;SDS011;11284;48.086;-1.652;2023-12-04T05:40:14;6.55;;;2.38;;
22230;SDS011;11284;48.086;-1.652;2023-12-04T05:42:40;7.78;;;2.40;;
22230;SDS011;11284;48.086;-1.652;2023-12-04T05:45:06;6.95;;;2.25;;
22230;SDS011;11284;48.086;-1.652;2023-12-04T05:47:33;5.60;;;2.22;;
22230;SDS011;11284;48.086;-1.652;2023-12-04T05:49:59;7.05;;;2.40;;
22230;SDS011;11284;48.086;-1.652;2023-12-04T05:52:25;6.45;;;2.38;;
22230;SDS011;11284;48.086;-1.652;2023-12-04T05:54:51;4.82;;;2.13;;
22230;SDS011;11284;48.086;-1.652;2023-12-04T05:57:17;7.15;;;2.47;;
22230;SDS011;11284;48.086;-1.652;2023-12-04T05:59:43;6.22;;;2.13;;
22230;SDS011;11284;48.086;-1.652;2023-12-04T06:02:10;5.57;;;1.88;;
22230;SDS011;11284;48.086;-1.652;2023-12-04T06:04:36;5.10;;;1.90;;
22230;SDS011;11284;48.086;-1.652;2023-12-04T06:07:01;7.93;;;2.03;;
22230;SDS011;11284;48.086;-1.652;2023-12-04T06:09:27;3.67;;;2.00;;
22230;SDS011;11284;48.086;-1.652;2023-12-04T06:11:53;4.22;;;1.75;;
22230;SDS011;11284;48.086;-1.652;2023-12-04T06:14:19;4.57;;;1.92;;
22230;SDS011;11284;48.086;-1.652;2023-12-04T06:16:45;5.47;;;2.22;;
22230;SDS011;11284;48.086;-1.652;2023-12-04T06:19:12;5.40;;;1.90;;
22230;SDS011;11284;48.086;-1.652;2023-12-04T06:21:38;6.35;;;1.80;;
22230;SDS011;11284;48.086;-1.652;2023-12-04T06:24:04;5.70;;;2.10;;
22230;SDS011;11284;48.086;-1.652;2023-12-04T06:26:31;5.05;;;2.17;;
22230;SDS011;11284;48.086;-1.652;2023-12-04T06:28:57;4.50;;;1.83;;
22230;SDS011;11284;48.086;-1.652;2023-12-04T06:31:23;5.25;;;2.10;;
22230;SDS011;11284;48.086;-1.652;2023-12-04T06:33:49;5.00;;;2.00;;
22230;SDS011;11284;48.086;-1.652;2023-12-04T06:36:15;4.00;;;1.85;;
22230;SDS011;11284;48.086;-1.652;2023-12-04T06:38:43;5.65;;;2.05;;
22230;SDS011;11284;48.086;-1.652;2023-12-04T06:41:12;7.72;;;2.05;;
22230;SDS011;11284;48.086;-1.652;2023-12-04T06:43:38;7.90;;;2.22;;
22230;SDS011;11284;48.086;-1.652;2023-12-04T06:46:04;6.70;;;2.20;;
22230;SDS011;11284;48.086;-1.652;2023-12-04T06:48:30;7.15;;;2.38;;
22230;SDS011;11284;48.086;-1.652;2023-12-04T06:50:57;5.75;;;2.45;;
22230;SDS011;11284;48.086;-1.652;2023-12-04T06:53:23;6.45;;;2.35;;
22230;SDS011;11284;48.086;-1.652;2023-12-04T06:55:49;6.88;;;2.55;;
22230;SDS011;11284;48.086;-1.652;2023-12-04T06:58:15;8.57;;;2.80;;
22230;SDS011;11284;48.086;-1.652;2023-12-04T07:00:41;9.65;;;3.00;;
22230;SDS011;11284;48.086;-1.652;2023-12-04T07:03:07;8.73;;;3.13;;
22230;SDS011;11284;48.086;-1.652;2023-12-04T07:05:33;8.70;;;3.28;;
22230;SDS011;11284;48.086;-1.652;2023-12-04T07:07:59;8.57;;;2.88;;
22230;SDS011;11284;48.086;-1.652;2023-12-04T07:10:25;11.57;;;3.40;;
22230;SDS011;11284;48.086;-1.652;2023-12-04T07:12:51;6.45;;;2.63;;
22230;SDS011;11284;48.086;-1.652;2023-12-04T07:15:17;11.80;;;3.25;;
22230;SDS011;11284;48.086;-1.652;2023-12-04T07:17:43;11.55;;;3.60;;
22230;SDS011;11284;48.086;-1.652;2023-12-04T07:20:09;10.70;;;3.35;;
22230;SDS011;11284;48.086;-1.652;2023-12-04T07:22:36;10.35;;;3.50;;
22230;SDS011;11284;48.086;-1.652;2023-12-04T07:25:02;13.32;;;3.90;;
22230;SDS011;11284;48.086;-1.652;2023-12-04T07:27:29;13.60;;;3.38;;
22230;SDS011;11284;48.086;-1.652;2023-12-04T07:29:55;15.27;;;4.10;;
22230;SDS011;11284;48.086;-1.652;2023-12-04T07:32:21;12.88;;;3.60;;
22230;SDS011;11284;48.086;-1.652;2023-12-04T07:34:47;14.43;;;3.70;;
22230;SDS011;11284;48.086;-1.652;2023-12-04T07:37:13;10.68;;;3.50;;
22230;SDS011;11284;48.086;-1.652;2023-12-04T07:39:39;12.52;;;3.58;;
22230;SDS011;11284;48.086;-1.652;2023-12-04T07:42:05;18.60;;;4.10;;
22230;SDS011;11284;48.086;-1.652;2023-12-04T07:44:31;14.68;;;3.70;;
22230;SDS011;11284;48.086;-1.652;2023-12-04T07:46:57;16.60;;;3.97;;
22230;SDS011;11284;48.086;-1.652;2023-12-04T07:49:23;12.85;;;3.95;;
22230;SDS011;11284;48.086;-1.652;2023-12-04T07:51:49;9.88;;;3.28;;
22230;SDS011;11284;48.086;-1.652;2023-12-04T07:54:15;14.60;;;3.72;;
22230;SDS011;11284;48.086;-1.652;2023-12-04T07:56:41;13.32;;;3.58;;
22230;SDS011;11284;48.086;-1.652;2023-12-04T07:59:07;13.48;;;3.70;;
22230;SDS011;11284;48.086;-1.652;2023-12-04T08:01:34;12.13;;;2.88;;
22230;SDS011;11284;48.086;-1.652;2023-12-04T08:04:00;13.27;;;3.13;;
22230;SDS011;11284;48.086;-1.652;2023-12-04T08:06:27;11.13;;;2.65;;
22230;SDS011;11284;48.086;-1.652;2023-12-04T08:08:53;11.27;;;2.47;;
22230;SDS011;11284;48.086;-1.652;2023-12-04T08:11:20;11.13;;;2.65;;
22230;SDS011;11284;48.086;-1.652;2023-12-04T08:13:46;10.85;;;2.65;;
22230;SDS011;11284;48.086;-1.652;2023-12-04T08:16:12;10.45;;;2.30;;
22230;SDS011;11284;48.086;-1.652;2023-12-04T08:18:40;12.10;;;3.38;;
22230;SDS011;11284;48.086;-1.652;2023-12-04T08:21:06;11.25;;;2.85;;
22230;SDS011;11284;48.086;-1.652;2023-12-04T08:23:32;14.00;;;3.40;;
22230;SDS011;11284;48.086;-1.652;2023-12-04T08:25:58;15.60;;;3.38;;
22230;SDS011;11284;48.086;-1.652;2023-12-04T08:28:24;13.60;;;3.90;;
22230;SDS011;11284;48.086;-1.652;2023-12-04T08:30:50;15.75;;;3.15;;
22230;SDS011;11284;48.086;-1.652;2023-12-04T08:33:16;16.45;;;2.72;;
22230;SDS011;11284;48.086;-1.652;2023-12-04T08:35:45;18.15;;;3.42;;
22230;SDS011;11284;48.086;-1.652;2023-12-04T08:38:11;15.68;;;3.22;;
22230;SDS011;11284;48.086;-1.652;2023-12-04T08:40:37;21.02;;;3.85;;
22230;SDS011;11284;48.086;-1.652;2023-12-04T08:43:03;22.33;;;4.97;;
22230;SDS011;11284;48.086;-1.652;2023-12-04T08:45:29;22.15;;;4.38;;
22230;SDS011;11284;48.086;-1.652;2023-12-04T08:47:55;21.33;;;4.35;;
22230;SDS011;11284;48.086;-1.652;2023-12-04T08:50:21;23.63;;;4.32;;
22230;SDS011;11284;48.086;-1.652;2023-12-04T08:52:47;39.42;;;6.25;;
22230;SDS011;11284;48.086;-1.652;2023-12-04T08:55:13;24.05;;;5.35;;
22230;SDS011;11284;48.086;-1.652;2023-12-04T08:57:39;29.63;;;4.93;;
22230;SDS011;11284;48.086;-1.652;2023-12-04T09:00:05;20.48;;;3.45;;
22230;SDS011;11284;48.086;-1.652;2023-12-04T09:02:33;17.15;;;3.45;;
22230;SDS011;11284;48.086;-1.652;2023-12-04T09:04:59;15.75;;;3.60;;
22230;SDS011;11284;48.086;-1.652;2023-12-04T09:07:25;14.90;;;4.10;;
22230;SDS011;11284;48.086;-1.652;2023-12-04T09:09:51;19.02;;;4.28;;
22230;SDS011;11284;48.086;-1.652;2023-12-04T09:12:17;14.43;;;3.78;;
22230;SDS011;11284;48.086;-1.652;2023-12-04T09:14:43;12.43;;;3.50;;
22230;SDS011;11284;48.086;-1.652;2023-12-04T09:17:09;13.00;;;3.20;;
22230;SDS011;11284;48.086;-1.652;2023-12-04T09:19:36;12.27;;;3.65;;
22230;SDS011;11284;48.086;-1.652;2023-12-04T09:22:01;11.68;;;4.03;;
22230;SDS011;11284;48.086;-1.652;2023-12-04T09:24:27;13.63;;;4.40;;
22230;SDS011;11284;48.086;-1.652;2023-12-04T09:26:56;11.55;;;3.17;;
22230;SDS011;11284;48.086;-1.652;2023-12-04T09:29:22;9.27;;;2.90;;
22230;SDS011;11284;48.086;-1.652;2023-12-04T09:31:49;10.13;;;3.00;;
22230;SDS011;11284;48.086;-1.652;2023-12-04T09:34:15;10.10;;;3.30;;
22230;SDS011;11284;48.086;-1.652;2023-12-04T09:36:43;9.65;;;2.70;;
22230;SDS011;11284;48.086;-1.652;2023-12-04T09:39:09;8.32;;;2.22;;
22230;SDS011;11284;48.086;-1.652;2023-12-04T09:41:35;8.65;;;2.33;;
22230;SDS011;11284;48.086;-1.652;2023-12-04T09:44:01;8.80;;;2.30;;
22230;SDS011;11284;48.086;-1.652;2023-12-04T09:46:28;8.07;;;2.05;;
22230;SDS011;11284;48.086;-1.652;2023-12-04T09:48:54;10.05;;;1.92;;
22230;SDS011;11284;48.086;-1.652;2023-12-04T09:51:22;6.30;;;1.70;;
22230;SDS011;11284;48.086;-1.652;2023-12-04T09:53:48;10.35;;;2.47;;
22230;SDS011;11284;48.086;-1.652;2023-12-04T09:56:14;9.35;;;2.30;;
22230;SDS011;11284;48.086;-1.652;2023-12-04T09:58:43;6.30;;;1.85;;
22230;SDS011;11284;48.086;-1.652;2023-12-04T10:01:09;9.43;;;2.13;;
22230;SDS011;11284;48.086;-1.652;2023-12-04T10:03:36;9.82;;;2.33;;
22230;SDS011;11284;48.086;-1.652;2023-12-04T10:06:02;8.00;;;1.80;;
22230;SDS011;11284;48.086;-1.652;2023-12-04T10:08:29;8.80;;;1.88;;
22230;SDS011;11284;48.086;-1.652;2023-12-04T10:10:55;9.13;;;2.00;;
22230;SDS011;11284;48.086;-1.652;2023-12-04T10:13:21;8.75;;;2.22;;
22230;SDS011;11284;48.086;-1.652;2023-12-04T10:15:49;9.00;;;2.30;;
22230;SDS011;11284;48.086;-1.652;2023-12-04T10:18:24;9.80;;;1.83;;
22230;SDS011;11284;48.086;-1.652;2023-12-04T10:20:51;8.13;;;2.15;;
22230;SDS011;11284;48.086;-1.652;2023-12-04T10:23:19;10.60;;;2.20;;
22230;SDS011;11284;48.086;-1.652;2023-12-04T10:25:45;12.05;;;2.55;;
22230;SDS011;11284;48.086;-1.652;2023-12-04T10:28:12;10.05;;;2.15;;
22230;SDS011;11284;48.086;-1.652;2023-12-04T10:30:40;11.65;;;2.30;;
22230;SDS011;11284;48.086;-1.652;2023-12-04T10:33:06;12.50;;;3.28;;
22230;SDS011;11284;48.086;-1.652;2023-12-04T10:35:33;14.95;;;2.83;;
22230;SDS011;11284;48.086;-1.652;2023-12-04T10:38:03;13.30;;;2.78;;
22230;SDS011;11284;48.086;-1.652;2023-12-04T10:40:30;13.05;;;2.65;;
22230;SDS011;11284;48.086;-1.652;2023-12-04T10:45:34;10.98;;;2.25;;
22230;SDS011;11284;48.086;-1.652;2023-12-04T10:48:01;11.32;;;2.65;;
22230;SDS011;11284;48.086;-1.652;2023-12-04T10:50:30;12.75;;;2.53;;
22230;SDS011;11284;48.086;-1.652;2023-12-04T10:52:57;13.55;;;2.83;;
22230;SDS011;11284;48.086;-1.652;2023-12-04T10:55:23;13.60;;;2.53;;
22230;SDS011;11284;48.086;-1.652;2023-12-04T10:57:49;7.53;;;1.83;;
22230;SDS011;11284;48.086;-1.652;2023-12-04T11:00:17;11.63;;;2.60;;
22230;SDS011;11284;48.086;-1.652;2023-12-04T11:02:44;11.32;;;2.40;;
22230;SDS011;11284;48.086;-1.652;2023-12-04T11:05:16;11.82;;;2.53;;
22230;SDS011;11284;48.086;-1.652;2023-12-04T11:07:44;10.88;;;2.10;;
22230;SDS011;11284;48.086;-1.652;2023-12-04T11:10:14;19.65;;;2.75;;
22230;SDS011;11284;48.086;-1.652;2023-12-04T11:12:43;13.52;;;2.63;;
22230;SDS011;11284;48.086;-1.652;2023-12-04T11:15:10;12.13;;;2.65;;
22230;SDS011;11284;48.086;-1.652;2023-12-04T11:17:37;9.18;;;2.38;;
22230;SDS011;11284;48.086;-1.652;2023-12-04T11:20:39;9.73;;;1.90;;
22230;SDS011;11284;48.086;-1.652;2023-12-04T11:22:56;10.05;;;1.98;;
22230;SDS011;11284;48.086;-1.652;2023-12-04T11:25:23;9.98;;;2.40;;
22230;SDS011;11284;48.086;-1.652;2023-12-04T11:27:50;9.82;;;2.30;;
22230;SDS011;11284;48.086;-1.652;2023-12-04T11:30:16;15.00;;;3.75;;
22230;SDS011;11284;48.086;-1.652;2023-12-04T11:32:46;18.05;;;9.48;;
22230;SDS011;11284;48.086;-1.652;2023-12-04T11:35:17;10.38;;;2.33;;
22230;SDS011;11284;48.086;-1.652;2023-12-04T11:37:43;8.38;;;2.20;;
22230;SDS011;11284;48.086;-1.652;2023-12-04T11:40:16;10.60;;;2.00;;
22230;SDS011;11284;48.086;-1.652;2023-12-04T11:42:42;10.45;;;2.42;;
22230;SDS011;11284;48.086;-1.652;2023-12-04T11:45:08;12.93;;;2.25;;
22230;SDS011;11284;48.086;-1.652;2023-12-04T11:50:19;7.90;;;1.80;;
22230;SDS011;11284;48.086;-1.652;2023-12-04T11:52:46;8.32;;;1.83;;
22230;SDS011;11284;48.086;-1.652;2023-12-04T11:55:12;10.35;;;1.40;;
22230;SDS011;11284;48.086;-1.652;2023-12-04T11:57:41;8.18;;;1.70;;
22230;SDS011;11284;48.086;-1.652;2023-12-04T12:02:45;8.40;;;1.42;;
22230;SDS011;11284;48.086;-1.652;2023-12-04T12:05:12;13.27;;;5.47;;
22230;SDS011;11284;48.086;-1.652;2023-12-04T12:07:38;9.82;;;1.90;;
22230;SDS011;11284;48.086;-1.652;2023-12-04T12:10:04;8.18;;;1.90;;
22230;SDS011;11284;48.086;-1.652;2023-12-04T12:12:30;10.98;;;1.70;;
22230;SDS011;11284;48.086;-1.652;2023-12-04T12:14:57;10.88;;;1.67;;
22230;SDS011;11284;48.086;-1.652;2023-12-04T12:17:23;5.47;;;1.30;;
22230;SDS011;11284;48.086;-1.652;2023-12-04T12:19:50;5.95;;;1.00;;
22230;SDS011;11284;48.086;-1.652;2023-12-04T12:22:16;8.45;;;1.70;;
22230;SDS011;11284;48.086;-1.652;2023-12-04T12:24:42;7.18;;;1.20;;
22230;SDS011;11284;48.086;-1.652;2023-12-04T12:27:08;7.55;;;1.30;;
22230;SDS011;11284;48.086;-1.652;2023-12-04T12:29:34;8.13;;;1.30;;
22230;SDS011;11284;48.086;-1.652;2023-12-04T12:32:00;6.65;;;1.65;;
22230;SDS011;11284;48.086;-1.652;2023-12-04T12:34:28;8.57;;;1.88;;
22230;SDS011;11284;48.086;-1.652;2023-12-04T12:36:54;5.43;;;1.30;;
22230;SDS011;11284;48.086;-1.652;2023-12-04T12:39:20;7.30;;;1.30;;
22230;SDS011;11284;48.086;-1.652;2023-12-04T12:41:49;10.40;;;1.55;;
22230;SDS011;11284;48.086;-1.652;2023-12-04T12:44:15;6.43;;;1.40;;
22230;SDS011;11284;48.086;-1.652;2023-12-04T12:46:41;7.20;;;1.27;;
22230;SDS011;11284;48.086;-1.652;2023-12-04T12:49:07;10.80;;;1.65;;
22230;SDS011;11284;48.086;-1.652;2023-12-04T12:51:33;7.80;;;1.45;;
22230;SDS011;11284;48.086;-1.652;2023-12-04T12:53:59;7.53;;;1.40;;
22230;SDS011;11284;48.086;-1.652;2023-12-04T12:56:25;4.43;;;1.15;;
22230;SDS011;11284;48.086;-1.652;2023-12-04T12:58:52;6.60;;;1.30;;
22230;SDS011;11284;48.086;-1.652;2023-12-04T13:01:18;7.70;;;1.83;;
22230;SDS011;11284;48.086;-1.652;2023-12-04T13:03:45;6.45;;;1.40;;
22230;SDS011;11284;48.086;-1.652;2023-12-04T13:06:12;8.00;;;1.30;;
22230;SDS011;11284;48.086;-1.652;2023-12-04T13:08:38;6.85;;;1.20;;
22230;SDS011;11284;48.086;-1.652;2023-12-04T13:11:04;8.80;;;1.35;;
22230;SDS011;11284;48.086;-1.652;2023-12-04T13:13:31;7.40;;;1.10;;
22230;SDS011;11284;48.086;-1.652;2023-12-04T13:15:57;6.32;;;1.20;;
22230;SDS011;11284;48.086;-1.652;2023-12-04T13:18:23;4.72;;;0.90;;
22230;SDS011;11284;48.086;-1.652;2023-12-04T13:20:49;6.32;;;1.40;;
22230;SDS011;11284;48.086;-1.652;2023-12-04T13:23:15;4.65;;;1.30;;
22230;SDS011;11284;48.086;-1.652;2023-12-04T13:25:41;7.35;;;1.35;;
22230;SDS011;11284;48.086;-1.652;2023-12-04T13:28:08;5.63;;;1.05;;
22230;SDS011;11284;48.086;-1.652;2023-12-04T13:30:34;5.60;;;1.25;;
22230;SDS011;11284;48.086;-1.652;2023-12-04T13:33:01;4.35;;;1.15;;
22230;SDS011;11284;48.086;-1.652;2023-12-04T13:35:28;3.13;;;0.80;;
22230;SDS011;11284;48.086;-1.652;2023-12-04T13:37:54;6.10;;;1.10;;
22230;SDS011;11284;48.086;-1.652;2023-12-04T13:40:21;4.72;;;1.10;;
22230;SDS011;11284;48.086;-1.652;2023-12-04T13:42:51;6.88;;;1.17;;
22230;SDS011;11284;48.086;-1.652;2023-12-04T13:45:36;6.25;;;1.02;;
22230;SDS011;11284;48.086;-1.652;2023-12-04T13:48:02;5.75;;;1.27;;
22230;SDS011;11284;48.086;-1.652;2023-12-04T13:50:28;4.82;;;1.02;;
22230;SDS011;11284;48.086;-1.652;2023-12-04T13:52:54;7.15;;;1.13;;
22230;SDS011;11284;48.086;-1.652;2023-12-04T13:55:22;4.72;;;1.05;;
22230;SDS011;11284;48.086;-1.652;2023-12-04T13:58:07;8.00;;;1.02;;
22230;SDS011;11284;48.086;-1.652;2023-12-04T14:00:56;7.13;;;1.02;;
22230;SDS011;11284;48.086;-1.652;2023-12-04T14:03:22;8.48;;;1.65;;
22230;SDS011;11284;48.086;-1.652;2023-12-04T14:05:48;4.30;;;1.00;;
22230;SDS011;11284;48.086;-1.652;2023-12-04T14:08:15;7.43;;;1.40;;
22230;SDS011;11284;48.086;-1.652;2023-12-04T14:10:41;6.78;;;1.05;;
22230;SDS011;11284;48.086;-1.652;2023-12-04T14:13:07;7.82;;;1.05;;
22230;SDS011;11284;48.086;-1.652;2023-12-04T14:15:33;5.88;;;0.95;;
22230;SDS011;11284;48.086;-1.652;2023-12-04T14:17:59;5.15;;;1.10;;
22230;SDS011;11284;48.086;-1.652;2023-12-04T14:20:25;4.05;;;0.80;;
22230;SDS011;11284;48.086;-1.652;2023-12-04T14:22:51;4.57;;;0.75;;
22230;SDS011;11284;48.086;-1.652;2023-12-04T14:25:17;3.67;;;0.77;;
22230;SDS011;11284;48.086;-1.652;2023-12-04T14:27:43;5.25;;;0.95;;
22230;SDS011;11284;48.086;-1.652;2023-12-04T14:30:10;3.83;;;0.80;;
22230;SDS011;11284;48.086;-1.652;2023-12-04T14:32:36;3.38;;;0.80;;
22230;SDS011;11284;48.086;-1.652;2023-12-04T14:35:03;4.43;;;0.73;;